createdAt,value
2023-05-22T00:02:23.242Z,8.20
2023-05-22T00:04:51.576Z,8.70
2023-05-22T00:07:19.060Z,9.10
2023-05-22T00:09:46.857Z,9.10
2023-05-22T00:12:14.467Z,9.50
2023-05-22T00:14:41.735Z,9.50
2023-05-22T00:17:10.534Z,9.40
2023-05-22T00:19:37.924Z,8.80
2023-05-22T00:22:05.867Z,8.60
2023-05-22T00:24:33.196Z,9.20
2023-05-22T00:27:00.450Z,9.30
2023-05-22T00:29:28.013Z,8.80
2023-05-22T00:31:57.108Z,8.90
2023-05-22T00:34:24.418Z,8.50
2023-05-22T00:36:51.720Z,9.60
2023-05-22T00:39:18.871Z,9.90
2023-05-22T00:41:46.437Z,10.20
2023-05-22T00:44:13.687Z,10.30
2023-05-22T00:46:41.274Z,10.90
2023-05-22T00:49:08.726Z,11.00
2023-05-22T00:51:35.962Z,11.70
2023-05-22T00:54:03.220Z,11.30
2023-05-22T00:56:30.575Z,12.50
2023-05-22T00:58:58.957Z,10.80
2023-05-22T01:01:26.895Z,12.20
2023-05-22T01:03:54.461Z,10.90
2023-05-22T01:06:21.945Z,12.10
2023-05-22T01:08:49.200Z,11.80
2023-05-22T01:11:25.942Z,12.00
2023-05-22T01:14:16.988Z,12.10
2023-05-22T01:16:54.893Z,11.00
2023-05-22T01:19:41.438Z,11.50
2023-05-22T01:22:27.593Z,11.40
2023-05-22T01:24:54.850Z,11.20
2023-05-22T01:27:50.568Z,11.70
2023-05-22T01:30:43.126Z,12.20
2023-05-22T01:33:12.711Z,12.20
2023-05-22T01:35:39.989Z,11.90
2023-05-22T01:38:08.062Z,12.20
2023-05-22T01:40:35.304Z,12.30
2023-05-22T01:43:04.612Z,12.10
2023-05-22T01:45:32.157Z,12.10
2023-05-22T01:47:59.573Z,12.80
2023-05-22T01:50:26.886Z,12.30
2023-05-22T01:53:16.158Z,12.20
2023-05-22T01:56:01.334Z,11.70
2023-05-22T01:58:45.723Z,11.70
2023-05-22T02:01:13.066Z,12.40
2023-05-22T02:03:40.484Z,12.00
2023-05-22T02:06:09.254Z,13.10
2023-05-22T02:08:39.115Z,13.00
2023-05-22T02:11:06.364Z,12.10
2023-05-22T02:13:33.874Z,13.00
2023-05-22T02:16:01.233Z,11.80
2023-05-22T02:18:31.911Z,12.60
2023-05-22T02:20:59.680Z,12.00
2023-05-22T02:23:29.810Z,11.10
2023-05-22T02:25:57.277Z,12.50
2023-05-22T02:28:24.623Z,12.50
2023-05-22T02:30:51.884Z,10.90
2023-05-22T02:33:19.340Z,11.80
2023-05-22T02:35:49.711Z,12.10
2023-05-22T02:38:17.134Z,12.20
2023-05-22T02:40:45.201Z,12.70
2023-05-22T02:43:12.438Z,12.50
2023-05-22T02:45:39.895Z,13.30
2023-05-22T02:48:07.199Z,12.70
2023-05-22T02:50:34.542Z,11.10
2023-05-22T02:53:01.863Z,11.80
2023-05-22T02:55:29.130Z,11.40
2023-05-22T02:57:56.376Z,11.20
2023-05-22T03:00:25.697Z,10.80
2023-05-22T03:02:53.245Z,11.10
2023-05-22T03:05:20.740Z,10.10
2023-05-22T03:07:49.685Z,10.00
2023-05-22T03:10:17.447Z,9.60
2023-05-22T03:12:44.915Z,9.90
2023-05-22T03:15:12.574Z,10.00
2023-05-22T03:17:40.764Z,9.10
2023-05-22T03:20:09.018Z,10.60
2023-05-22T03:22:36.631Z,10.30
2023-05-22T03:25:06.578Z,10.60
2023-05-22T03:27:33.754Z,10.20
2023-05-22T03:30:02.053Z,10.20
2023-05-22T03:32:30.050Z,9.00
2023-05-22T03:34:59.108Z,9.20
2023-05-22T03:37:26.361Z,8.60
2023-05-22T03:39:53.624Z,8.20
2023-05-22T03:42:25.477Z,8.70
2023-05-22T03:44:53.037Z,7.90
2023-05-22T03:47:20.571Z,8.20
2023-05-22T03:49:48.069Z,8.00
2023-05-22T03:52:15.317Z,7.80
2023-05-22T03:54:43.499Z,7.20
2023-05-22T03:57:11.364Z,7.50
2023-05-22T03:59:38.523Z,7.80
2023-05-22T04:02:05.861Z,6.90
2023-05-22T04:04:34.352Z,8.10
2023-05-22T04:07:03.089Z,7.70
2023-05-22T04:09:31.734Z,7.30
2023-05-22T04:11:59.025Z,7.10
2023-05-22T04:14:26.547Z,7.50
2023-05-22T04:16:54.213Z,7.20
2023-05-22T04:19:22.642Z,7.20
2023-05-22T04:21:49.952Z,7.50
2023-05-22T04:24:18.656Z,6.90
2023-05-22T04:26:45.895Z,7.00
2023-05-22T04:29:14.850Z,7.00
2023-05-22T04:31:43.378Z,6.80
2023-05-22T04:34:13.398Z,6.90
2023-05-22T04:36:40.643Z,6.70
2023-05-22T04:39:08.509Z,6.30
2023-05-22T04:41:35.775Z,7.20
2023-05-22T04:44:04.464Z,6.80
2023-05-22T04:46:31.962Z,6.60
2023-05-22T04:49:02.431Z,6.70
2023-05-22T04:51:31.689Z,5.40
2023-05-22T04:56:36.753Z,5.50
2023-05-22T04:59:09.567Z,5.90
2023-05-22T05:01:38.655Z,5.50
2023-05-22T05:04:06.418Z,4.70
2023-05-22T05:06:34.988Z,4.80
2023-05-22T05:09:03.407Z,5.10
2023-05-22T05:11:30.652Z,4.80
2023-05-22T05:13:58.315Z,4.80
2023-05-22T05:16:26.756Z,5.40
2023-05-22T05:18:54.072Z,5.60
2023-05-22T05:21:21.721Z,5.40
2023-05-22T05:23:49.173Z,5.30
2023-05-22T05:26:16.420Z,5.40
2023-05-22T05:28:43.686Z,5.70
2023-05-22T05:31:11.334Z,5.40
2023-05-22T05:34:07.665Z,5.80
2023-05-22T05:36:57.871Z,6.10
2023-05-22T05:39:26.148Z,5.30
2023-05-22T05:41:53.604Z,5.90
2023-05-22T05:44:21.877Z,5.50
2023-05-22T05:46:49.126Z,6.00
2023-05-22T05:49:19.551Z,5.70
2023-05-22T05:51:47.536Z,5.90
2023-05-22T05:54:16.969Z,5.90
2023-05-22T05:56:45.519Z,5.60
2023-05-22T05:59:13.587Z,4.80
2023-05-22T06:01:59.790Z,5.40
2023-05-22T06:04:28.667Z,5.40
2023-05-22T06:06:56.545Z,5.10
2023-05-22T06:09:38.238Z,5.10
2023-05-22T06:12:13.124Z,5.10
2023-05-22T06:14:43.491Z,5.40
2023-05-22T06:17:10.851Z,4.40
2023-05-22T06:19:39.944Z,4.20
2023-05-22T06:22:07.401Z,4.60
2023-05-22T06:24:35.262Z,4.30
2023-05-22T06:27:07.329Z,4.30
2023-05-22T06:29:34.992Z,4.50
2023-05-22T06:32:02.918Z,4.10
2023-05-22T06:34:30.459Z,3.90
2023-05-22T06:36:58.588Z,4.10
2023-05-22T06:39:29.720Z,4.60
2023-05-22T06:41:57.192Z,4.00
2023-05-22T06:44:26.141Z,4.20
2023-05-22T06:46:57.741Z,3.70
2023-05-22T06:49:26.632Z,3.80
2023-05-22T06:51:55.525Z,3.70
2023-05-22T06:54:22.883Z,3.40
2023-05-22T06:56:54.060Z,3.50
2023-05-22T06:59:21.382Z,3.60
2023-05-22T07:01:51.708Z,3.20
2023-05-22T07:04:23.667Z,3.10
2023-05-22T07:07:00.036Z,3.70
2023-05-22T07:09:27.605Z,2.90
2023-05-22T07:11:54.845Z,3.10
2023-05-22T07:14:22.112Z,2.80
2023-05-22T07:16:49.545Z,2.80
2023-05-22T07:19:21.855Z,2.70
2023-05-22T07:21:49.174Z,3.20
2023-05-22T07:24:17.896Z,3.10
2023-05-22T07:26:46.800Z,2.80
2023-05-22T07:29:14.626Z,3.30
2023-05-22T07:31:42.678Z,3.20
2023-05-22T07:34:10.866Z,2.80
2023-05-22T07:36:38.425Z,2.90
2023-05-22T07:39:05.890Z,3.00
2023-05-22T07:41:36.519Z,2.60
2023-05-22T07:44:03.868Z,3.50
2023-05-22T07:46:35.893Z,2.60
2023-05-22T07:49:10.777Z,2.70
2023-05-22T07:51:41.494Z,2.90
2023-05-22T07:54:10.492Z,3.30
2023-05-22T07:56:43.477Z,3.30
2023-05-22T07:59:12.315Z,2.90
2023-05-22T08:01:40.618Z,2.70
2023-05-22T08:04:08.114Z,4.90
2023-05-22T08:06:35.772Z,3.20
2023-05-22T08:09:04.635Z,2.80
2023-05-22T08:11:32.109Z,2.40
2023-05-22T08:13:59.361Z,2.50
2023-05-22T08:16:26.761Z,2.60
2023-05-22T08:18:54.085Z,2.30
2023-05-22T08:21:21.327Z,2.70
2023-05-22T08:23:48.573Z,2.10
2023-05-22T08:26:16.347Z,2.50
2023-05-22T08:28:44.722Z,2.30
2023-05-22T08:31:12.335Z,2.60
2023-05-22T08:33:39.964Z,2.70
2023-05-22T08:36:07.307Z,2.40
2023-05-22T08:38:34.785Z,2.70
2023-05-22T08:41:02.010Z,2.60
2023-05-22T08:43:29.468Z,2.60
2023-05-22T08:46:02.757Z,2.60
2023-05-22T08:48:31.546Z,2.60
2023-05-22T08:51:08.415Z,2.60
2023-05-22T08:53:37.041Z,2.40
2023-05-22T08:56:06.217Z,2.60
2023-05-22T08:58:36.634Z,2.60
2023-05-22T09:01:04.902Z,2.50
2023-05-22T09:03:35.625Z,2.50
2023-05-22T09:06:04.483Z,2.50
2023-05-22T09:08:31.718Z,2.90
2023-05-22T09:10:59.067Z,2.40
2023-05-22T09:13:27.080Z,2.70
2023-05-22T09:15:58.934Z,2.60
2023-05-22T09:18:30.167Z,2.40
2023-05-22T09:20:58.302Z,2.60
2023-05-22T09:23:27.901Z,2.70
2023-05-22T09:25:59.676Z,2.50
2023-05-22T09:28:27.123Z,2.70
2023-05-22T09:30:55.010Z,2.70
2023-05-22T09:33:23.062Z,2.50
2023-05-22T09:35:53.863Z,2.70
2023-05-22T09:38:27.014Z,2.50
2023-05-22T09:40:54.976Z,2.30
2023-05-22T09:43:23.710Z,2.20
2023-05-22T09:45:56.128Z,2.50
2023-05-22T09:48:23.522Z,2.20
2023-05-22T09:50:52.678Z,2.40
2023-05-22T09:53:20.746Z,2.40
2023-05-22T09:55:48.203Z,2.40
2023-05-22T09:58:18.943Z,2.10
2023-05-22T10:00:46.706Z,2.30
2023-05-22T10:03:16.212Z,2.50
2023-05-22T10:05:48.775Z,2.30
2023-05-22T10:08:21.602Z,2.40
2023-05-22T10:10:53.537Z,2.40
2023-05-22T10:13:21.256Z,2.20
2023-05-22T10:15:49.236Z,2.40
2023-05-22T10:18:17.627Z,2.30
2023-05-22T10:20:45.204Z,2.50
2023-05-22T10:23:12.673Z,2.10
2023-05-22T10:25:40.036Z,2.30
2023-05-22T10:28:07.577Z,2.50
2023-05-22T10:30:42.973Z,2.30
2023-05-22T10:33:43.603Z,2.10
2023-05-22T10:36:33.462Z,2.20
2023-05-22T10:39:09.497Z,2.10
2023-05-22T10:41:36.956Z,2.10
2023-05-22T10:44:04.410Z,2.60
2023-05-22T10:46:35.015Z,2.40
2023-05-22T10:49:02.510Z,2.60
2023-05-22T10:51:29.861Z,2.40
2023-05-22T10:54:02.550Z,2.20
2023-05-22T10:56:33.957Z,2.10
2023-05-22T10:59:08.630Z,2.30
2023-05-22T11:01:38.604Z,2.40
2023-05-22T11:04:12.648Z,2.30
2023-05-22T11:06:45.968Z,2.30
2023-05-22T11:09:30.920Z,2.20
2023-05-22T11:12:16.830Z,2.40
2023-05-22T11:14:51.122Z,2.20
2023-05-22T11:17:22.040Z,2.30
2023-05-22T11:19:57.467Z,2.30
2023-05-22T11:22:41.002Z,1.70
2023-05-22T11:25:10.995Z,2.40
2023-05-22T11:27:39.842Z,2.20
2023-05-22T11:30:08.650Z,2.20
2023-05-22T11:32:40.169Z,2.30
2023-05-22T11:35:19.406Z,2.30
2023-05-22T11:37:47.082Z,2.30
2023-05-22T11:40:16.259Z,2.00
2023-05-22T11:42:43.737Z,2.00
2023-05-22T11:45:11.671Z,2.50
2023-05-22T11:47:38.880Z,2.20
2023-05-22T11:50:09.041Z,2.60
2023-05-22T11:52:37.149Z,2.10
2023-05-22T11:55:08.219Z,2.30
2023-05-22T11:57:36.364Z,2.30
2023-05-22T12:00:06.619Z,2.10
2023-05-22T12:02:48.106Z,1.90
2023-05-22T12:05:16.960Z,2.00
2023-05-22T12:07:45.134Z,2.00
2023-05-22T12:10:14.665Z,2.10
2023-05-22T12:12:43.778Z,2.20
2023-05-22T12:15:11.987Z,2.00
2023-05-22T12:17:40.214Z,2.00
2023-05-22T12:20:08.542Z,1.90
2023-05-22T12:22:41.345Z,1.90
2023-05-22T12:25:20.498Z,1.90
2023-05-22T12:27:48.476Z,2.20
2023-05-22T12:30:17.328Z,2.50
2023-05-22T12:32:49.724Z,2.20
2023-05-22T12:35:18.164Z,1.80
2023-05-22T12:37:52.548Z,2.30
2023-05-22T12:40:20.389Z,2.40
2023-05-22T12:42:48.543Z,2.10
2023-05-22T12:45:18.279Z,2.00
2023-05-22T12:47:46.455Z,2.20
2023-05-22T12:50:14.405Z,1.80
2023-05-22T12:52:42.198Z,2.20
2023-05-22T12:55:10.789Z,2.20
2023-05-22T12:57:38.598Z,1.70
2023-05-22T13:00:07.334Z,2.10
2023-05-22T13:02:35.050Z,1.90
2023-05-22T13:05:03.002Z,2.00
2023-05-22T13:07:31.378Z,2.10
2023-05-22T13:09:59.187Z,2.10
2023-05-22T13:12:27.669Z,2.30
2023-05-22T13:14:55.437Z,2.10
2023-05-22T13:17:23.238Z,2.50
2023-05-22T13:19:51.675Z,2.20
2023-05-22T13:22:19.440Z,2.00
2023-05-22T13:24:47.203Z,2.40
2023-05-22T13:27:16.459Z,2.30
2023-05-22T13:29:47.448Z,1.90
2023-05-22T13:32:15.509Z,2.30
2023-05-22T13:34:43.360Z,2.10
2023-05-22T13:37:11.562Z,2.30
2023-05-22T13:39:39.422Z,2.00
2023-05-22T13:42:07.391Z,2.00
2023-05-22T13:44:35.778Z,1.90
2023-05-22T13:47:04.013Z,2.10
2023-05-22T13:49:31.820Z,2.10
2023-05-22T13:51:59.580Z,1.80
2023-05-22T13:54:27.745Z,2.20
2023-05-22T13:56:58.026Z,2.20
2023-05-22T13:59:26.048Z,2.50
2023-05-22T14:01:53.854Z,2.20
2023-05-22T14:04:21.732Z,2.40
2023-05-22T14:06:49.654Z,2.40
2023-05-22T14:09:17.842Z,2.20
2023-05-22T14:11:45.690Z,2.20
2023-05-22T14:14:13.459Z,2.30
2023-05-22T14:16:41.263Z,2.40
2023-05-22T14:19:09.249Z,2.40
2023-05-22T14:21:37.264Z,2.30
2023-05-22T14:24:05.430Z,2.30
2023-05-22T14:26:33.303Z,2.30
2023-05-22T14:29:01.574Z,2.10
2023-05-22T14:31:29.724Z,2.10
2023-05-22T14:33:57.616Z,2.30
2023-05-22T14:36:25.387Z,2.50
2023-05-22T14:38:53.144Z,2.40
2023-05-22T14:41:22.241Z,2.20
2023-05-22T14:43:50.013Z,2.20
2023-05-22T14:46:17.833Z,2.30
2023-05-22T14:48:45.840Z,2.40
2023-05-22T14:51:13.609Z,2.30
2023-05-22T14:53:41.375Z,2.70
2023-05-22T14:56:09.449Z,2.20
2023-05-22T14:58:37.215Z,2.00
2023-05-22T15:01:05.386Z,2.30
2023-05-22T15:03:33.101Z,2.50
2023-05-22T15:06:02.148Z,2.50
2023-05-22T15:08:29.912Z,2.50
2023-05-22T15:10:57.677Z,2.60
2023-05-22T15:13:25.441Z,2.50
2023-05-22T15:15:53.446Z,2.10
2023-05-22T15:18:21.420Z,2.30
2023-05-22T15:20:49.248Z,3.00
2023-05-22T15:23:17.221Z,2.40
2023-05-22T15:25:45.290Z,2.30
2023-05-22T15:28:13.051Z,2.50
2023-05-22T15:30:43.888Z,2.30
2023-05-22T15:33:12.076Z,2.30
2023-05-22T15:35:41.250Z,2.60
2023-05-22T15:38:12.762Z,2.50
2023-05-22T15:40:41.971Z,2.50
2023-05-22T15:43:09.884Z,2.30
2023-05-22T15:45:38.106Z,2.40
2023-05-22T15:48:06.811Z,2.60
2023-05-22T15:50:34.806Z,2.00
2023-05-22T15:53:02.584Z,2.20
2023-05-22T15:55:30.541Z,2.10
2023-05-22T15:57:58.523Z,2.50
2023-05-22T16:00:27.465Z,2.40
2023-05-22T16:02:55.369Z,2.10
2023-05-22T16:05:23.354Z,2.50
2023-05-22T16:07:51.072Z,2.50
2023-05-22T16:10:20.103Z,2.50
2023-05-22T16:12:48.282Z,1.90
2023-05-22T16:15:16.250Z,2.20
2023-05-22T16:17:45.152Z,2.60
2023-05-22T16:20:13.135Z,2.10
2023-05-22T16:25:18.515Z,2.20
2023-05-22T16:27:46.445Z,2.20
2023-05-22T16:30:17.529Z,2.20
2023-05-22T16:32:48.774Z,2.10
2023-05-22T16:35:16.874Z,2.30
2023-05-22T16:37:44.680Z,2.10
2023-05-22T16:40:12.547Z,2.40
2023-05-22T16:42:40.486Z,2.30
2023-05-22T16:45:08.815Z,2.40
2023-05-22T16:47:36.592Z,2.40
2023-05-22T16:50:04.959Z,2.20
2023-05-22T16:52:32.810Z,2.30
2023-05-22T16:55:01.826Z,2.90
2023-05-22T16:57:29.667Z,2.50
2023-05-22T16:59:57.965Z,2.40
2023-05-22T17:02:26.446Z,2.50
2023-05-22T17:04:54.900Z,3.20
2023-05-22T17:07:22.689Z,2.90
2023-05-22T17:09:50.429Z,3.00
2023-05-22T17:14:08.494Z,3.10
2023-05-22T17:16:36.363Z,2.50
2023-05-22T17:19:04.208Z,3.00
2023-05-22T17:21:32.188Z,2.80
2023-05-22T17:23:59.951Z,2.80
2023-05-22T17:26:27.977Z,2.50
2023-05-22T17:28:55.689Z,2.70
2023-05-22T17:31:23.468Z,2.40
2023-05-22T17:33:51.324Z,2.90
2023-05-22T17:36:19.085Z,2.50
2023-05-22T17:38:46.858Z,2.60
2023-05-22T17:41:14.624Z,2.80
2023-05-22T17:43:42.427Z,3.00
2023-05-22T17:46:10.487Z,2.80
2023-05-22T17:48:38.233Z,2.70
2023-05-22T17:51:06.088Z,2.90
2023-05-22T17:53:35.685Z,2.80
2023-05-22T17:56:05.008Z,2.90
2023-05-22T17:58:33.117Z,3.40
2023-05-22T18:01:00.952Z,3.30
2023-05-22T18:03:28.886Z,3.80
2023-05-22T18:05:57.310Z,3.60
2023-05-22T18:08:25.161Z,3.50
2023-05-22T18:10:52.923Z,3.50
2023-05-22T18:13:20.686Z,3.60
2023-05-22T18:15:50.405Z,3.80
2023-05-22T18:18:18.271Z,3.40
2023-05-22T18:20:46.556Z,3.60
2023-05-22T18:23:14.306Z,3.30
2023-05-22T18:25:42.388Z,3.50
2023-05-22T18:28:10.398Z,3.00
2023-05-22T18:30:38.313Z,3.40
2023-05-22T18:33:06.320Z,3.30
2023-05-22T18:35:34.060Z,3.50
2023-05-22T18:38:02.239Z,3.50
2023-05-22T18:40:30.107Z,3.70
2023-05-22T18:42:57.972Z,3.40
2023-05-22T18:45:25.744Z,4.20
2023-05-22T18:47:53.811Z,3.90
2023-05-22T18:50:23.575Z,4.20
2023-05-22T18:52:51.608Z,4.00
2023-05-22T18:55:19.370Z,3.60
2023-05-22T18:57:47.129Z,3.90
2023-05-22T19:00:15.008Z,3.90
2023-05-22T19:02:42.831Z,4.00
2023-05-22T19:05:10.891Z,4.50
2023-05-22T19:07:38.708Z,3.80
2023-05-22T19:10:08.253Z,4.70
2023-05-22T19:12:36.181Z,4.20
2023-05-22T19:15:05.330Z,4.10
2023-05-22T19:17:33.216Z,11.40
2023-05-22T19:20:01.172Z,4.10
2023-05-22T19:22:28.992Z,4.50
2023-05-22T19:24:56.757Z,4.40
2023-05-22T19:27:24.524Z,4.10
2023-05-22T19:29:52.288Z,4.20
2023-05-22T19:32:20.054Z,4.90
2023-05-22T19:34:47.922Z,4.70
2023-05-22T19:37:15.692Z,4.50
2023-05-22T19:39:43.456Z,4.30
2023-05-22T19:42:11.631Z,4.40
2023-05-22T19:44:39.432Z,4.40
2023-05-22T19:47:07.897Z,4.40
2023-05-22T19:49:37.312Z,4.60
2023-05-22T19:52:06.207Z,4.70
2023-05-22T19:54:35.408Z,4.50
2023-05-22T19:57:03.554Z,4.50
2023-05-22T19:59:31.318Z,4.70
2023-05-22T20:01:59.132Z,4.50
2023-05-22T20:04:27.058Z,4.60
2023-05-22T20:06:54.826Z,4.60
2023-05-22T20:09:22.584Z,5.10
2023-05-22T20:11:50.558Z,5.00
2023-05-22T20:14:18.325Z,5.70
2023-05-22T20:16:46.346Z,5.10
2023-05-22T20:19:15.187Z,4.40
2023-05-22T20:21:43.159Z,5.00
2023-05-22T20:24:17.542Z,5.10
2023-05-22T20:26:45.171Z,5.60
2023-05-22T20:29:16.095Z,5.60
2023-05-22T20:31:44.101Z,5.00
2023-05-22T20:34:12.074Z,5.10
2023-05-22T20:36:40.103Z,5.70
2023-05-22T20:39:09.195Z,5.40
2023-05-22T20:41:36.975Z,5.30
2023-05-22T20:44:04.832Z,5.70
2023-05-22T20:46:32.612Z,5.70
2023-05-22T20:49:00.471Z,6.00
2023-05-22T20:51:32.965Z,5.80
2023-05-22T20:54:01.136Z,5.60
2023-05-22T20:56:30.358Z,5.90
2023-05-22T20:58:58.201Z,6.20
2023-05-22T21:01:26.013Z,6.50
2023-05-22T21:03:56.615Z,6.50
2023-05-22T21:06:24.668Z,6.20
2023-05-22T21:08:54.278Z,8.60
2023-05-22T21:11:22.352Z,7.80
2023-05-22T21:13:50.223Z,6.70
2023-05-22T21:16:17.991Z,7.20
2023-05-22T21:18:45.857Z,5.40
2023-05-22T21:21:14.761Z,5.60
2023-05-22T21:23:43.651Z,5.60
2023-05-22T21:26:11.417Z,5.10
2023-05-22T21:28:39.226Z,5.40
2023-05-22T21:31:07.398Z,5.20
2023-05-22T21:33:35.331Z,5.20
2023-05-22T21:36:03.153Z,5.30
2023-05-22T21:38:31.173Z,5.40
2023-05-22T21:40:59.553Z,4.80
2023-05-22T21:43:27.257Z,5.30
2023-05-22T21:45:54.985Z,5.60
2023-05-22T21:48:22.752Z,5.40
2023-05-22T21:50:50.625Z,4.70
2023-05-22T21:53:18.491Z,5.10
2023-05-22T21:55:46.157Z,5.00
2023-05-22T21:58:13.919Z,4.90
2023-05-22T22:00:41.930Z,4.60
2023-05-22T22:03:09.929Z,5.40
2023-05-22T22:05:37.834Z,4.90
2023-05-22T22:08:06.218Z,5.20
2023-05-22T22:10:33.986Z,5.00
2023-05-22T22:13:02.569Z,7.30
2023-05-22T22:15:31.979Z,6.90
2023-05-22T22:18:02.586Z,6.10
2023-05-22T22:20:44.173Z,5.50
2023-05-22T22:23:13.003Z,5.30
2023-05-22T22:25:40.858Z,5.40
2023-05-22T22:28:08.658Z,5.20
2023-05-22T22:30:36.413Z,5.00
2023-05-22T22:33:04.312Z,5.10
2023-05-22T22:35:32.339Z,4.80
2023-05-22T22:38:00.146Z,4.40
2023-05-22T22:40:28.084Z,5.00
2023-05-22T22:42:55.956Z,4.90
2023-05-22T22:45:23.821Z,4.70
2023-05-22T22:47:53.344Z,4.60
2023-05-22T22:50:21.824Z,5.10
2023-05-22T22:52:49.728Z,4.90
2023-05-22T22:55:17.659Z,4.50
2023-05-22T22:57:50.250Z,4.60
2023-05-22T23:00:19.442Z,4.20
2023-05-22T23:02:47.299Z,4.50
2023-05-22T23:05:17.064Z,4.60
2023-05-22T23:07:44.990Z,4.50
2023-05-22T23:10:14.079Z,4.30
2023-05-22T23:12:42.182Z,4.80
2023-05-22T23:15:13.620Z,4.50
2023-05-22T23:17:41.649Z,4.10
2023-05-22T23:20:10.596Z,4.30
2023-05-22T23:22:38.353Z,4.50
2023-05-22T23:25:06.838Z,4.30
2023-05-22T23:27:34.557Z,4.40
2023-05-22T23:30:04.581Z,3.90
2023-05-22T23:32:32.519Z,4.20
2023-05-22T23:35:00.304Z,4.10
2023-05-22T23:37:28.030Z,4.40
2023-05-22T23:39:56.000Z,4.00
2023-05-22T23:42:23.776Z,3.70
2023-05-22T23:44:51.538Z,4.20
2023-05-22T23:47:20.944Z,4.40
2023-05-22T23:49:48.731Z,3.80
2023-05-22T23:52:16.780Z,4.00
2023-05-22T23:54:44.649Z,4.60
2023-05-22T23:57:12.727Z,4.10
2023-05-22T23:59:40.901Z,3.70
